Terminal Aerodrome Forecast
Issued by NWS

Home | Current Version | Previous Version | Text Only | Print | Product List | Glossary On
Versions: 1 2 3 4 5 6 7 8 9 10 11 12 13 14 15
523
FTUS45 KRIW 262320
TAFBPI
TAF
KBPI 262320Z 2700/2724 31010KT P6SM VCSH BKN050
     FM270100 28012KT 3SM -SHSN OVC015
     FM270800 32014G22KT P6SM VCSH SCT020 BKN035
     FM271500 32022G32KT P6SM VCSH OVC040=

USA.gov is the U.S. government's official web portal to all federal, state and local government web resources and services.